Time;durP1;ratioP1;P1;durP2;ratioP2;P2;SDS_P1;SDS_P2;PMS_P1;PMS_P2;Temp;Humidity;BMP_temperature;BMP_pressure;BME280_temperature;BME280_humidity;BME280_pressure;Samples;Min_cycle;Max_cycle;Signal;HPM_P1;HPM_P2
2021/11/20 00:00:26;;;;;;;9.15;2.47;;;;;;;;;;5024985;28;20091;-59
2021/11/20 00:02:52;;;;;;;5.18;2.67;;;;;;;;;;5017066;28;20080;-59
2021/11/20 00:05:24;;;;;;;8.25;2.72;;;;;;;;;;5015363;28;20029;-59
2021/11/20 00:07:50;;;;;;;4.95;2.40;;;;;;;;;;5017024;28;20366;-59
2021/11/20 00:10:19;;;;;;;25.83;3.30;;;;;;;;;;5016427;28;20037;-59
2021/11/20 00:12:45;;;;;;;6.35;2.10;;;;;;;;;;5024183;28;20075;-59
2021/11/20 00:15:13;;;;;;;3.55;1.88;;;;;;;;;;5017588;28;20030;-59
2021/11/20 00:17:39;;;;;;;3.28;1.55;;;;;;;;;;5018997;28;20029;-59
2021/11/20 00:20:11;;;;;;;4.72;1.60;;;;;;;;;;5021018;28;20064;-59
2021/11/20 00:22:37;;;;;;;;;;;;;;;;;;5015245;28;20025;-59
2021/11/20 00:25:22;;;;;;;3.85;1.42;;;;;;;;;;5019914;28;19996;-59
2021/11/20 00:27:49;;;;;;;2.83;1.23;;;;;;;;;;5020919;28;20048;-59
2021/11/20 00:30:19;;;;;;;5.63;1.80;;;;;;;;;;5020933;28;20531;-59
2021/11/20 00:33:03;;;;;;;6.18;1.67;;;;;;;;;;5014992;28;20120;-59
2021/11/20 00:35:35;;;;;;;6.72;2.00;;;;;;;;;;5017836;28;20049;-59
2021/11/20 00:38:02;;;;;;;3.92;1.48;;;;;;;;;;5017795;28;20026;-58
2021/11/20 00:40:38;;;;;;;5.05;1.42;;;;;;;;;;5019942;28;20480;-59
2021/11/20 00:43:04;;;;;;;5.07;1.40;;;;;;;;;;5014277;28;20041;-59
2021/11/20 00:45:31;;;;;;;3.03;1.42;;;;;;;;;;5018602;28;20045;-59
2021/11/20 00:47:56;;;;;;;8.05;1.10;;;;;;;;;;5018584;28;20035;-59
2021/11/20 00:50:23;;;;;;;3.35;1.10;;;;;;;;;;5018086;28;20025;-59
2021/11/20 00:52:49;;;;;;;4.22;1.30;;;;;;;;;;5012148;28;20033;-59
2021/11/20 00:55:19;;;;;;;4.40;1.60;;;;;;;;;;5018315;28;20025;-59
2021/11/20 00:57:45;;;;;;;4.43;1.45;;;;;;;;;;5018300;28;20033;-59
2021/11/20 01:00:14;;;;;;;8.07;1.23;;;;;;;;;;5021811;28;20580;-58
2021/11/20 01:02:41;;;;;;;2.42;1.38;;;;;;;;;;5021641;28;20040;-59
2021/11/20 01:05:09;;;;;;;4.93;1.30;;;;;;;;;;5018535;28;20492;-59
2021/11/20 01:07:35;;;;;;;4.78;1.55;;;;;;;;;;5019369;28;20038;-59
2021/11/20 01:10:01;;;;;;;3.15;1.20;;;;;;;;;;5016580;28;20033;-59
2021/11/20 01:12:32;;;;;;;3.60;1.25;;;;;;;;;;5015540;28;20034;-59
2021/11/20 01:14:59;;;;;;;3.08;1.38;;;;;;;;;;5017457;28;20127;-58
2021/11/20 01:17:26;;;;;;;6.65;1.60;;;;;;;;;;5019643;28;20495;-59
2021/11/20 01:19:53;;;;;;;3.88;1.42;;;;;;;;;;5015788;28;20504;-59
2021/11/20 01:22:21;;;;;;;10.80;1.80;;;;;;;;;;5016107;28;20043;-59
2021/11/20 01:24:47;;;;;;;4.82;1.40;;;;;;;;;;5015529;28;20030;-59
2021/11/20 01:27:14;;;;;;;4.03;1.33;;;;;;;;;;5018744;28;20037;-58
2021/11/20 01:29:39;;;;;;;4.45;1.65;;;;;;;;;;5015009;28;20022;-58
2021/11/20 01:32:06;;;;;;;3.33;1.20;;;;;;;;;;5021023;28;20090;-58
2021/11/20 01:34:31;;;;;;;3.03;1.52;;;;;;;;;;5024037;28;20076;-59
2021/11/20 01:36:59;;;;;;;3.40;1.63;;;;;;;;;;5014539;28;20068;-59
2021/11/20 01:39:31;;;;;;;3.38;1.73;;;;;;;;;;5013340;28;20034;-58
2021/11/20 01:41:59;;;;;;;;;;;;;;;;;;5015709;28;20065;-58
2021/11/20 01:44:42;;;;;;;5.85;1.55;;;;;;;;;;5021300;28;19970;-58
2021/11/20 01:47:31;;;;;;;7.03;1.80;;;;;;;;;;5022004;28;20073;-59
2021/11/20 01:50:08;;;;;;;6.32;1.90;;;;;;;;;;5018790;28;20449;-58
2021/11/20 01:53:18;;;;;;;2.95;1.58;;;;;;;;;;5018629;28;20028;-58
2021/11/20 01:55:50;;;;;;;5.93;1.58;;;;;;;;;;5011130;28;20038;-58
2021/11/20 01:58:22;;;;;;;4.95;1.48;;;;;;;;;;5019140;28;20029;-59
2021/11/20 02:00:51;;;;;;;6.53;2.22;;;;;;;;;;5017793;28;20044;-59
2021/11/20 02:03:22;;;;;;;4.57;1.23;;;;;;;;;;5019351;28;20083;-59
2021/11/20 02:06:10;;;;;;;3.65;1.48;;;;;;;;;;5015942;28;20037;-58
2021/11/20 02:08:55;;;;;;;4.25;1.45;;;;;;;;;;5017640;28;20029;-58
2021/11/20 02:11:42;;;;;;;4.07;1.52;;;;;;;;;;5014818;28;20049;-59
2021/11/20 02:14:10;;;;;;;4.40;1.42;;;;;;;;;;5017442;28;20042;-59
2021/11/20 02:16:41;;;;;;;1.55;1.27;;;;;;;;;;5003940;28;20036;-58
2021/11/20 02:19:13;;;;;;;4.57;1.33;;;;;;;;;;5020574;28;20388;-59
2021/11/20 02:21:53;;;;;;;4.63;1.00;;;;;;;;;;5025969;28;20432;-59
2021/11/20 02:24:19;;;;;;;1.55;1.17;;;;;;;;;;5017712;28;20392;-58
2021/11/20 02:26:44;;;;;;;5.60;1.13;;;;;;;;;;5012373;28;20022;-59
2021/11/20 02:29:11;;;;;;;3.13;1.33;;;;;;;;;;5015775;28;20030;-59
2021/11/20 02:31:48;;;;;;;6.53;1.17;;;;;;;;;;5014574;28;20076;-59
2021/11/20 02:34:15;;;;;;;3.65;1.10;;;;;;;;;;5020691;28;20021;-58
2021/11/20 02:36:41;;;;;;;4.28;1.30;;;;;;;;;;5015533;28;20050;-59
2021/11/20 02:39:13;;;;;;;2.38;1.00;;;;;;;;;;5016883;28;20501;-59
2021/11/20 02:41:41;;;;;;;4.22;0.82;;;;;;;;;;5014226;28;20087;-59
2021/11/20 02:44:08;;;;;;;5.05;0.90;;;;;;;;;;5019457;28;20048;-59
2021/11/20 02:46:40;;;;;;;2.33;0.73;;;;;;;;;;5018130;28;20041;-59
2021/11/20 02:49:08;;;;;;;2.72;1.27;;;;;;;;;;5015360;28;20162;-59
2021/11/20 02:51:37;;;;;;;2.53;0.68;;;;;;;;;;5011503;28;20053;-58
2021/11/20 02:54:24;;;;;;;5.18;1.05;;;;;;;;;;5018205;28;20126;-58
2021/11/20 02:56:59;;;;;;;6.32;0.80;;;;;;;;;;5019287;28;20598;-58
2021/11/20 02:59:25;;;;;;;3.10;1.17;;;;;;;;;;5019691;28;20164;-58
2021/11/20 03:01:51;;;;;;;7.47;0.80;;;;;;;;;;5018202;28;20116;-58
2021/11/20 03:04:21;;;;;;;2.65;0.80;;;;;;;;;;5020281;28;20029;-58
2021/11/20 03:06:51;;;;;;;3.28;0.93;;;;;;;;;;5014933;28;20544;-59
2021/11/20 03:09:16;;;;;;;2.58;0.60;;;;;;;;;;5020227;28;20029;-59
2021/11/20 03:11:43;;;;;;;1.98;0.70;;;;;;;;;;5017336;28;20029;-59
2021/11/20 03:14:11;;;;;;;4.30;0.60;;;;;;;;;;5022802;28;20064;-58
2021/11/20 03:16:40;;;;;;;1.40;0.75;;;;;;;;;;5020517;28;20025;-59
2021/11/20 03:19:06;;;;;;;3.22;0.55;;;;;;;;;;5018534;28;20112;-58
2021/11/20 03:21:33;;;;;;;4.43;0.57;;;;;;;;;;5025357;28;20044;-58
2021/11/20 03:24:01;;;;;;;0.82;0.45;;;;;;;;;;5023085;28;20404;-58
2021/11/20 03:26:27;;;;;;;1.77;0.55;;;;;;;;;;5018676;28;20507;-58
2021/11/20 03:28:52;;;;;;;5.28;0.98;;;;;;;;;;5020385;28;20042;-58
2021/11/20 03:31:19;;;;;;;1.00;0.50;;;;;;;;;;5019794;28;20029;-58
2021/11/20 03:33:45;;;;;;;3.72;0.63;;;;;;;;;;5019974;28;20547;-58
2021/11/20 03:36:11;;;;;;;1.92;0.50;;;;;;;;;;5019614;28;20029;-58
2021/11/20 03:38:36;;;;;;;5.05;1.27;;;;;;;;;;5021712;28;20053;-58
2021/11/20 03:41:03;;;;;;;1.15;0.60;;;;;;;;;;5023551;28;20110;-58
2021/11/20 03:43:29;;;;;;;3.53;0.60;;;;;;;;;;5025154;28;20030;-58
2021/11/20 03:45:54;;;;;;;3.00;0.60;;;;;;;;;;5020546;28;20053;-58
2021/11/20 03:48:20;;;;;;;3.28;0.70;;;;;;;;;;5018003;28;20125;-58
2021/11/20 03:50:47;;;;;;;4.05;0.90;;;;;;;;;;5014201;28;20037;-59
2021/11/20 03:53:13;;;;;;;3.25;0.95;;;;;;;;;;5023318;28;20094;-58
2021/11/20 03:55:43;;;;;;;4.55;0.50;;;;;;;;;;5017713;28;20036;-59
2021/11/20 03:58:10;;;;;;;5.47;0.63;;;;;;;;;;5018055;28;20044;-59
2021/11/20 04:00:41;;;;;;;2.28;0.70;;;;;;;;;;5024602;28;20451;-58
2021/11/20 04:03:07;;;;;;;3.47;0.60;;;;;;;;;;5017812;28;20624;-58
2021/11/20 04:05:33;;;;;;;2.88;0.70;;;;;;;;;;5017300;28;20133;-58
2021/11/20 04:07:59;;;;;;;4.10;0.73;;;;;;;;;;5022142;28;20535;-58
2021/11/20 04:10:26;;;;;;;2.30;0.85;;;;;;;;;;5015888;28;20425;-58
2021/11/20 04:12:53;;;;;;;3.25;0.63;;;;;;;;;;5015006;28;20056;-58
2021/11/20 04:15:22;;;;;;;4.80;0.88;;;;;;;;;;5016642;28;20036;-58
2021/11/20 04:17:48;;;;;;;2.70;0.80;;;;;;;;;;5019636;28;20071;-58
2021/11/20 04:20:17;;;;;;;4.80;1.00;;;;;;;;;;5019394;28;20498;-58
2021/11/20 04:22:43;;;;;;;2.70;1.00;;;;;;;;;;5019093;28;20112;-58
2021/11/20 04:25:11;;;;;;;1.35;0.98;;;;;;;;;;5013327;28;20048;-58
2021/11/20 04:27:36;;;;;;;4.75;1.30;;;;;;;;;;5019805;28;20040;-58
2021/11/20 04:30:04;;;;;;;4.32;1.13;;;;;;;;;;5016172;28;20029;-57
2021/11/20 04:32:30;;;;;;;2.85;1.50;;;;;;;;;;5019828;28;20086;-58
2021/11/20 04:34:56;;;;;;;3.55;1.30;;;;;;;;;;5017767;28;20025;-57
2021/11/20 04:37:21;;;;;;;3.03;1.60;;;;;;;;;;5017333;28;20033;-58
2021/11/20 04:39:47;;;;;;;3.03;1.83;;;;;;;;;;5017671;28;20485;-58
2021/11/20 04:42:12;;;;;;;5.50;2.10;;;;;;;;;;5014779;28;20564;-58
2021/11/20 04:44:38;;;;;;;15.65;2.08;;;;;;;;;;5020143;28;20516;-58
2021/11/20 04:47:04;;;;;;;4.22;1.65;;;;;;;;;;5020209;28;20541;-58
2021/11/20 04:49:29;;;;;;;3.95;2.08;;;;;;;;;;5019765;28;20128;-58
2021/11/20 04:51:55;;;;;;;4.60;2.10;;;;;;;;;;5021529;28;20440;-58
2021/11/20 04:54:21;;;;;;;2.40;2.17;;;;;;;;;;5018629;28;20116;-58
2021/11/20 04:56:46;;;;;;;3.10;2.15;;;;;;;;;;5018589;28;20499;-58
2021/11/20 04:59:12;;;;;;;3.75;2.15;;;;;;;;;;5012846;28;20032;-58
2021/11/20 05:01:37;;;;;;;4.53;1.90;;;;;;;;;;5023175;28;20467;-58
2021/11/20 05:04:03;;;;;;;9.35;2.20;;;;;;;;;;5025027;28;20037;-58
2021/11/20 05:06:29;;;;;;;2.88;2.20;;;;;;;;;;5024209;28;20396;-58
2021/11/20 05:08:59;;;;;;;7.72;2.40;;;;;;;;;;5019738;28;20515;-58
2021/11/20 05:11:26;;;;;;;5.97;2.40;;;;;;;;;;5016668;28;20025;-58
2021/11/20 05:13:52;;;;;;;4.15;2.50;;;;;;;;;;5013321;28;20044;-58
2021/11/20 05:16:18;;;;;;;4.20;2.70;;;;;;;;;;5021948;28;20105;-58
2021/11/20 05:18:43;;;;;;;6.85;2.65;;;;;;;;;;5019789;28;20499;-58
2021/11/20 05:21:09;;;;;;;6.28;3.30;;;;;;;;;;5013955;28;20042;-59
2021/11/20 05:23:36;;;;;;;6.65;2.63;;;;;;;;;;5015648;28;20030;-59
2021/11/20 05:26:04;;;;;;;8.30;2.75;;;;;;;;;;5015943;28;20503;-59
2021/11/20 05:28:30;;;;;;;6.35;2.90;;;;;;;;;;5019792;28;20108;-58
2021/11/20 05:30:56;;;;;;;6.15;3.03;;;;;;;;;;5019478;28;20569;-59
2021/11/20 05:33:54;;;;;;;6.18;2.72;;;;;;;;;;5012306;28;20041;-58
2021/11/20 05:36:20;;;;;;;3.53;1.92;;;;;;;;;;5015485;28;20052;-59
2021/11/20 05:38:46;;;;;;;7.75;2.42;;;;;;;;;;5019118;28;20084;-59
2021/11/20 05:41:12;;;;;;;6.53;2.08;;;;;;;;;;5016744;28;20022;-59
2021/11/20 05:43:38;;;;;;;6.43;2.13;;;;;;;;;;5017102;28;20033;-58
2021/11/20 05:46:10;;;;;;;6.38;1.65;;;;;;;;;;5020119;28;20063;-58
2021/11/20 05:48:35;;;;;;;8.82;1.63;;;;;;;;;;5022445;28;20038;-58
2021/11/20 05:51:01;;;;;;;3.22;1.85;;;;;;;;;;5018199;28;20037;-58
2021/11/20 05:53:26;;;;;;;6.30;2.03;;;;;;;;;;5020254;28;20101;-58
2021/11/20 05:55:55;;;;;;;2.47;1.85;;;;;;;;;;5017131;28;20064;-59
2021/11/20 05:58:22;;;;;;;5.53;1.77;;;;;;;;;;5023840;28;20250;-58
2021/11/20 06:00:51;;;;;;;9.57;2.05;;;;;;;;;;5010713;28;20493;-58
2021/11/20 06:03:18;;;;;;;7.32;2.08;;;;;;;;;;5020655;28;20045;-58
2021/11/20 06:05:45;;;;;;;4.60;1.88;;;;;;;;;;5016169;28;20036;-58
2021/11/20 06:08:12;;;;;;;5.97;1.58;;;;;;;;;;5019634;28;20039;-58
2021/11/20 06:10:39;;;;;;;4.45;1.70;;;;;;;;;;5014042;28;20033;-58
2021/11/20 06:13:07;;;;;;;15.88;2.75;;;;;;;;;;5022676;28;20056;-58
2021/11/20 06:15:34;;;;;;;4.22;1.58;;;;;;;;;;5014319;28;20038;-58
2021/11/20 06:17:59;;;;;;;6.38;1.60;;;;;;;;;;5017021;28;20441;-58
2021/11/20 06:20:25;;;;;;;6.78;1.33;;;;;;;;;;5013824;28;20041;-58
2021/11/20 06:22:50;;;;;;;5.18;1.60;;;;;;;;;;5013393;28;20084;-58
2021/11/20 06:25:17;;;;;;;2.63;1.30;;;;;;;;;;5018465;28;20021;-58
2021/11/20 06:27:42;;;;;;;6.88;1.67;;;;;;;;;;5012597;28;20037;-58
2021/11/20 06:30:15;;;;;;;4.95;1.45;;;;;;;;;;5015432;28;20030;-58
2021/11/20 06:32:42;;;;;;;7.68;1.40;;;;;;;;;;5021986;28;20485;-58
2021/11/20 06:35:11;;;;;;;4.57;1.55;;;;;;;;;;5013208;28;20033;-58
2021/11/20 06:37:39;;;;;;;4.53;1.40;;;;;;;;;;5024786;28;20029;-58
2021/11/20 06:40:07;;;;;;;7.03;1.77;;;;;;;;;;5020271;28;20297;-58
2021/11/20 06:42:32;;;;;;;2.58;1.55;;;;;;;;;;5021702;28;20137;-57
2021/11/20 06:44:58;;;;;;;3.25;1.67;;;;;;;;;;5020779;28;20030;-58
2021/11/20 06:47:24;;;;;;;9.95;1.90;;;;;;;;;;5022165;28;20060;-58
2021/11/20 06:49:49;;;;;;;8.90;1.63;;;;;;;;;;5021398;28;20405;-58
2021/11/20 06:52:15;;;;;;;2.85;1.65;;;;;;;;;;5019827;28;20041;-58
2021/11/20 06:54:41;;;;;;;5.20;1.30;;;;;;;;;;5019817;28;20177;-58
2021/11/20 06:57:10;;;;;;;8.95;2.10;;;;;;;;;;5021067;28;20034;-58
2021/11/20 07:02:16;;;;;;;;;;;;;;;;;;5020321;28;20104;-58
2021/11/20 07:04:42;;;;;;;2.92;1.50;;;;;;;;;;5021689;28;19913;-58
2021/11/20 07:07:10;;;;;;;19.27;2.30;;;;;;;;;;5022475;28;20033;-58
2021/11/20 07:09:36;;;;;;;4.40;1.67;;;;;;;;;;5016924;28;20034;-58
2021/11/20 07:12:03;;;;;;;4.80;1.63;;;;;;;;;;5022492;28;20035;-58
2021/11/20 07:14:29;;;;;;;5.20;1.48;;;;;;;;;;5022847;28;20113;-58
2021/11/20 07:16:55;;;;;;;8.90;1.65;;;;;;;;;;5022524;28;20037;-58
2021/11/20 07:19:21;;;;;;;6.50;1.77;;;;;;;;;;5017414;28;20021;-59
2021/11/20 07:21:46;;;;;;;5.82;1.40;;;;;;;;;;5019984;28;20104;-59
2021/11/20 07:24:15;;;;;;;9.48;1.67;;;;;;;;;;5015189;28;20030;-59
2021/11/20 07:26:43;;;;;;;6.55;1.60;;;;;;;;;;5016041;28;20104;-59
2021/11/20 07:29:10;;;;;;;1.55;1.08;;;;;;;;;;5022771;28;20075;-59
2021/11/20 07:31:35;;;;;;;4.40;1.23;;;;;;;;;;5018824;28;20029;-59
2021/11/20 07:34:01;;;;;;;4.22;1.40;;;;;;;;;;5019975;28;20473;-59
2021/11/20 07:36:28;;;;;;;6.90;1.52;;;;;;;;;;5021724;28;20476;-59
2021/11/20 07:38:58;;;;;;;7.82;1.38;;;;;;;;;;5018475;28;20025;-59
2021/11/20 07:41:27;;;;;;;4.55;1.45;;;;;;;;;;5023170;28;20021;-59
2021/11/20 07:43:52;;;;;;;6.60;1.30;;;;;;;;;;5019305;28;20133;-59
2021/11/20 07:46:19;;;;;;;5.38;1.20;;;;;;;;;;5018996;28;20136;-59
2021/11/20 07:48:45;;;;;;;7.65;1.70;;;;;;;;;;5020449;28;20033;-58
2021/11/20 07:51:13;;;;;;;10.15;1.55;;;;;;;;;;5019891;28;20037;-59
2021/11/20 07:53:40;;;;;;;6.40;1.17;;;;;;;;;;5016022;28;20083;-59
2021/11/20 07:56:06;;;;;;;5.80;1.50;;;;;;;;;;5011156;28;20520;-59
2021/11/20 07:58:32;;;;;;;2.90;1.30;;;;;;;;;;5020592;28;20026;-58
2021/11/20 08:00:58;;;;;;;12.90;1.10;;;;;;;;;;5016732;28;20065;-59
2021/11/20 08:03:24;;;;;;;2.95;1.30;;;;;;;;;;5015402;28;20049;-59
2021/11/20 08:05:51;;;;;;;8.38;1.35;;;;;;;;;;5021736;28;20033;-59
2021/11/20 08:08:17;;;;;;;7.13;1.02;;;;;;;;;;5016011;28;20037;-59
2021/11/20 08:10:42;;;;;;;9.95;1.92;;;;;;;;;;5014670;28;20029;-59
2021/11/20 08:13:09;;;;;;;10.57;1.60;;;;;;;;;;5012720;28;20049;-59
2021/11/20 08:15:35;;;;;;;7.38;1.80;;;;;;;;;;5018477;28;20034;-59
2021/11/20 08:18:01;;;;;;;7.43;1.10;;;;;;;;;;5023692;28;20495;-59
2021/11/20 08:20:32;;;;;;;7.25;1.65;;;;;;;;;;5016767;28;20037;-59
2021/11/20 08:22:58;;;;;;;3.95;1.10;;;;;;;;;;5021904;28;20021;-59
2021/11/20 08:25:25;;;;;;;6.82;1.10;;;;;;;;;;5027538;28;20530;-59
2021/11/20 08:27:51;;;;;;;10.43;1.05;;;;;;;;;;5024709;28;20543;-59
2021/11/20 08:30:20;;;;;;;15.88;1.10;;;;;;;;;;5023804;28;20033;-59
2021/11/20 08:32:47;;;;;;;6.18;1.35;;;;;;;;;;5015508;28;20141;-59
2021/11/20 08:35:13;;;;;;;13.23;1.08;;;;;;;;;;5014611;28;20033;-59
2021/11/20 08:37:39;;;;;;;7.07;1.50;;;;;;;;;;5013444;28;20460;-59
2021/11/20 08:40:07;;;;;;;3.75;0.90;;;;;;;;;;5017339;28;20040;-59
2021/11/20 08:42:34;;;;;;;13.27;1.25;;;;;;;;;;5015356;28;20101;-59
2021/11/20 08:45:01;;;;;;;7.47;1.63;;;;;;;;;;5019788;28;20622;-59
2021/11/20 08:47:26;;;;;;;5.63;1.13;;;;;;;;;;5013829;28;20279;-59
2021/11/20 08:49:53;;;;;;;6.90;0.82;;;;;;;;;;5013652;28;20049;-59
2021/11/20 08:52:18;;;;;;;6.10;1.50;;;;;;;;;;5018150;28;20025;-59
2021/11/20 08:54:44;;;;;;;8.85;1.67;;;;;;;;;;5013940;28;20041;-59
2021/11/20 08:57:09;;;;;;;7.90;1.55;;;;;;;;;;5020786;28;20025;-59
2021/11/20 08:59:37;;;;;;;7.63;1.98;;;;;;;;;;5022670;28;20287;-59
2021/11/20 09:02:05;;;;;;;15.07;1.55;;;;;;;;;;5016495;28;20519;-59
2021/11/20 09:04:42;;;;;;;11.82;1.60;;;;;;;;;;5013393;28;20105;-59
2021/11/20 09:07:20;;;;;;;13.75;1.83;;;;;;;;;;5018221;28;20041;-59
2021/11/20 09:09:51;;;;;;;5.90;1.70;;;;;;;;;;5018832;28;20500;-59
2021/11/20 09:12:28;;;;;;;9.23;2.00;;;;;;;;;;5019551;28;20144;-59
2021/11/20 09:15:02;;;;;;;13.07;1.70;;;;;;;;;;5020362;28;20117;-59
2021/11/20 09:17:27;;;;;;;7.43;1.63;;;;;;;;;;5014456;28;20135;-59
2021/11/20 09:19:53;;;;;;;9.60;1.50;;;;;;;;;;5016393;28;20064;-59
2021/11/20 09:22:20;;;;;;;10.30;1.70;;;;;;;;;;5013653;28;20041;-59
2021/11/20 09:24:47;;;;;;;7.00;1.50;;;;;;;;;;5010675;28;20030;-59
2021/11/20 09:27:13;;;;;;;13.55;1.70;;;;;;;;;;5019121;28;20042;-58
2021/11/20 09:29:40;;;;;;;9.45;1.80;;;;;;;;;;5015251;28;20041;-58
2021/11/20 09:32:07;;;;;;;8.75;1.60;;;;;;;;;;5013431;28;20185;-59
2021/11/20 09:34:33;;;;;;;13.68;1.55;;;;;;;;;;5020512;28;20128;-59
2021/11/20 09:36:59;;;;;;;9.48;2.00;;;;;;;;;;5013964;28;20451;-59
2021/11/20 09:39:29;;;;;;;8.77;1.80;;;;;;;;;;5021744;28;20598;-58
2021/11/20 09:42:33;;;;;;;14.77;1.80;;;;;;;;;;5017962;28;20450;-59
2021/11/20 09:45:15;;;;;;;7.88;1.40;;;;;;;;;;4973270;28;20120;-59
2021/11/20 09:47:51;;;;;;;8.57;1.67;;;;;;;;;;5031013;28;20040;-58
2021/11/20 09:50:23;;;;;;;8.98;1.45;;;;;;;;;;5016957;28;20033;-58
2021/11/20 09:52:49;;;;;;;14.27;1.57;;;;;;;;;;5014127;28;20071;-59
2021/11/20 09:55:26;;;;;;;18.33;2.03;;;;;;;;;;5017626;28;20447;-59
2021/11/20 09:58:04;;;;;;;10.02;1.40;;;;;;;;;;5020446;28;20037;-59
2021/11/20 10:00:51;;;;;;;5.65;1.48;;;;;;;;;;5018389;28;20060;-59
2021/11/20 10:03:36;;;;;;;11.35;1.40;;;;;;;;;;5022312;28;20018;-59
2021/11/20 10:06:09;;;;;;;8.18;1.63;;;;;;;;;;5022102;28;20060;-59
2021/11/20 10:08:42;;;;;;;7.60;1.58;;;;;;;;;;5021529;28;20451;-59
2021/11/20 10:11:07;;;;;;;5.53;1.40;;;;;;;;;;5019646;28;20033;-59
2021/11/20 10:13:44;;;;;;;11.73;1.85;;;;;;;;;;5023241;28;20076;-59
2021/11/20 10:16:15;;;;;;;10.95;1.38;;;;;;;;;;5023749;28;20040;-59
2021/11/20 10:19:07;;;;;;;17.67;2.15;;;;;;;;;;5022952;28;20334;-59
2021/11/20 10:22:02;;;;;;;8.77;1.13;;;;;;;;;;5018062;28;20516;-59
2021/11/20 10:24:59;;;;;;;19.00;2.97;;;;;;;;;;5024876;28;20033;-58
2021/11/20 10:27:43;;;;;;;7.35;1.00;;;;;;;;;;5023406;28;20061;-59
2021/11/20 10:30:33;;;;;;;2.10;0.88;;;;;;;;;;5022352;28;20030;-58
2021/11/20 10:33:02;;;;;;;3.35;1.33;;;;;;;;;;5013516;28;20033;-58
2021/11/20 10:35:38;;;;;;;7.97;1.52;;;;;;;;;;5020272;28;20026;-58
2021/11/20 10:38:19;;;;;;;9.07;1.35;;;;;;;;;;5024105;28;20112;-59
2021/11/20 10:41:01;;;;;;;6.68;1.10;;;;;;;;;;5024181;28;20033;-59
2021/11/20 10:43:52;;;;;;;5.80;1.20;;;;;;;;;;5019431;28;20064;-59
2021/11/20 10:46:31;;;;;;;7.63;1.30;;;;;;;;;;5019819;28;20522;-58
2021/11/20 10:49:15;;;;;;;13.55;1.85;;;;;;;;;;5019773;28;20029;-59
2021/11/20 10:52:02;;;;;;;9.85;1.73;;;;;;;;;;5017090;28;20408;-58
2021/11/20 10:55:00;;;;;;;6.88;1.75;;;;;;;;;;5018430;28;20108;-59
2021/11/20 10:57:51;;;;;;;8.23;1.50;;;;;;;;;;5025972;28;20053;-59
2021/11/20 11:00:55;;;;;;;10.25;1.60;;;;;;;;;;5018694;28;20063;-59
2021/11/20 11:03:30;;;;;;;7.90;1.20;;;;;;;;;;5016813;28;20179;-59
2021/11/20 11:06:33;;;;;;;7.65;2.47;;;;;;;;;;5019869;28;20034;-59
2021/11/20 11:08:58;;;;;;;8.80;1.17;;;;;;;;;;5016582;28;20029;-58
2021/11/20 11:11:34;;;;;;;6.85;1.35;;;;;;;;;;5015249;28;20498;-59
2021/11/20 11:14:02;;;;;;;5.22;1.35;;;;;;;;;;5025290;28;20082;-59
2021/11/20 11:16:33;;;;;;;8.32;2.10;;;;;;;;;;5019664;28;20036;-59
2021/11/20 11:19:24;;;;;;;5.70;1.75;;;;;;;;;;5015143;28;20017;-59
2021/11/20 11:22:01;;;;;;;3.78;1.20;;;;;;;;;;5012995;28;20405;-59
2021/11/20 11:24:49;;;;;;;11.88;1.20;;;;;;;;;;5016577;28;20064;-59
2021/11/20 11:27:16;;;;;;;7.63;0.80;;;;;;;;;;5021013;28;20392;-59
2021/11/20 11:30:02;;;;;;;7.28;1.08;;;;;;;;;;5021881;28;20032;-59
2021/11/20 11:32:31;;;;;;;15.57;1.58;;;;;;;;;;5020092;28;20037;-59
2021/11/20 11:35:04;;;;;;;7.90;1.08;;;;;;;;;;5017310;28;20029;-59
2021/11/20 11:37:35;;;;;;;6.47;0.98;;;;;;;;;;5018118;28;20057;-59
2021/11/20 11:40:26;;;;;;;6.35;1.27;;;;;;;;;;5025503;28;20041;-59
2021/11/20 11:42:58;;;;;;;11.43;1.23;;;;;;;;;;5023471;28;20393;-59
2021/11/20 11:45:48;;;;;;;8.73;1.30;;;;;;;;;;5016588;28;20021;-59
2021/11/20 11:48:32;;;;;;;4.70;1.40;;;;;;;;;;5023614;28;20087;-59
2021/11/20 11:51:28;;;;;;;4.65;1.40;;;;;;;;;;5018937;28;20037;-59
2021/11/20 11:54:12;;;;;;;13.20;1.77;;;;;;;;;;5022060;28;20068;-59
2021/11/20 11:56:40;;;;;;;13.65;1.60;;;;;;;;;;5016490;28;20076;-60
2021/11/20 11:59:25;;;;;;;11.93;2.25;;;;;;;;;;5017995;28;20029;-59
2021/11/20 12:01:53;;;;;;;7.45;1.27;;;;;;;;;;5016998;28;20097;-59
2021/11/20 12:04:37;;;;;;;7.90;1.65;;;;;;;;;;5019033;28;20036;-59
2021/11/20 12:07:24;;;;;;;5.90;1.40;;;;;;;;;;5021744;28;20791;-59
2021/11/20 12:10:10;;;;;;;9.23;2.33;;;;;;;;;;5021935;28;20033;-59
2021/11/20 12:12:40;;;;;;;17.30;3.42;;;;;;;;;;5019482;28;20061;-60
2021/11/20 12:15:08;;;;;;;10.57;1.88;;;;;;;;;;5019706;28;20030;-59
2021/11/20 12:18:12;;;;;;;12.95;1.67;;;;;;;;;;5019743;28;20117;-58
2021/11/20 12:20:56;;;;;;;11.93;1.67;;;;;;;;;;5020775;28;20511;-59
2021/11/20 12:23:52;;;;;;;9.43;1.70;;;;;;;;;;5021200;28;20421;-59
2021/11/20 12:26:32;;;;;;;20.60;1.73;;;;;;;;;;5015416;28;20073;-59
2021/11/20 12:29:19;;;;;;;6.13;1.40;;;;;;;;;;5023666;28;20021;-59
2021/11/20 12:31:57;;;;;;;9.82;1.58;;;;;;;;;;5015710;28;20036;-59
2021/11/20 12:34:41;;;;;;;16.42;1.50;;;;;;;;;;5019853;28;20326;-59
2021/11/20 12:37:19;;;;;;;6.72;1.75;;;;;;;;;;5014712;28;20041;-59
2021/11/20 12:39:55;;;;;;;19.08;1.63;;;;;;;;;;5020533;28;20108;-59
2021/11/20 12:42:30;;;;;;;7.70;1.27;;;;;;;;;;5016616;28;20030;-59
2021/11/20 12:45:14;;;;;;;12.82;1.70;;;;;;;;;;5017307;28;20053;-58
2021/11/20 12:47:46;;;;;;;10.43;1.80;;;;;;;;;;5018561;28;20088;-59
2021/11/20 12:50:33;;;;;;;5.18;1.35;;;;;;;;;;5014858;28;20036;-59
2021/11/20 12:53:24;;;;;;;11.30;1.70;;;;;;;;;;5013946;28;20504;-59
2021/11/20 12:56:17;;;;;;;8.57;1.27;;;;;;;;;;5008351;28;20036;-59
2021/11/20 12:58:47;;;;;;;7.25;1.38;;;;;;;;;;5015932;28;20044;-59
2021/11/20 13:01:17;;;;;;;13.35;1.77;;;;;;;;;;5017733;28;20029;-59
2021/11/20 13:03:51;;;;;;;13.98;2.00;;;;;;;;;;5014036;28;20072;-59
2021/11/20 13:06:24;;;;;;;8.13;1.95;;;;;;;;;;5017249;28;20044;-58
2021/11/20 13:08:57;;;;;;;8.35;1.55;;;;;;;;;;5016479;28;20497;-60
2021/11/20 13:11:27;;;;;;;13.32;2.72;;;;;;;;;;5015991;28;20556;-59
2021/11/20 13:14:00;;;;;;;9.93;2.65;;;;;;;;;;5016593;28;20021;-58
2021/11/20 13:16:38;;;;;;;11.57;2.20;;;;;;;;;;5021336;28;20042;-59
2021/11/20 13:19:09;;;;;;;7.38;1.85;;;;;;;;;;5021625;28;20595;-58
2021/11/20 13:21:45;;;;;;;6.88;1.42;;;;;;;;;;5020931;28;20104;-58
2021/11/20 13:24:20;;;;;;;11.02;2.08;;;;;;;;;;5013669;28;20026;-58
2021/11/20 13:27:07;;;;;;;12.00;2.20;;;;;;;;;;5014000;28;20077;-59
2021/11/20 13:29:32;;;;;;;13.00;2.50;;;;;;;;;;5016312;28;20500;-58
2021/11/20 13:32:01;;;;;;;18.42;3.33;;;;;;;;;;5018533;28;20044;-58
2021/11/20 13:34:27;;;;;;;10.93;2.28;;;;;;;;;;5016897;28;20034;-58
2021/11/20 13:36:52;;;;;;;18.33;2.88;;;;;;;;;;5021280;28;20404;-59
2021/11/20 13:39:18;;;;;;;15.10;3.67;;;;;;;;;;5021159;28;20021;-59
2021/11/20 13:41:56;;;;;;;8.75;2.15;;;;;;;;;;5009828;28;20026;-59
2021/11/20 13:44:23;;;;;;;11.10;2.58;;;;;;;;;;5016253;28;20017;-59
2021/11/20 13:46:53;;;;;;;6.75;2.15;;;;;;;;;;5014488;28;20042;-59
2021/11/20 13:49:20;;;;;;;13.85;2.75;;;;;;;;;;5022233;28;20029;-59
2021/11/20 13:51:46;;;;;;;13.90;3.00;;;;;;;;;;5022209;28;20116;-60
2021/11/20 13:54:14;;;;;;;15.40;3.47;;;;;;;;;;5019490;28;20113;-59
2021/11/20 13:56:42;;;;;;;10.52;2.80;;;;;;;;;;5014594;28;20026;-59
2021/11/20 13:59:18;;;;;;;14.05;3.03;;;;;;;;;;5012637;28;20055;-59
2021/11/20 14:01:54;;;;;;;9.60;3.03;;;;;;;;;;5016360;28;20036;-58
2021/11/20 14:04:23;;;;;;;12.05;3.00;;;;;;;;;;5019804;28;20034;-59
2021/11/20 14:07:03;;;;;;;13.45;3.90;;;;;;;;;;5018097;28;20031;-58
2021/11/20 14:09:29;;;;;;;16.88;3.30;;;;;;;;;;5020790;28;20033;-58
2021/11/20 14:12:05;;;;;;;11.98;3.42;;;;;;;;;;5018114;28;20417;-58
2021/11/20 14:14:31;;;;;;;14.75;4.25;;;;;;;;;;5021882;28;20050;-58
2021/11/20 14:17:10;;;;;;;15.02;4.28;;;;;;;;;;5015764;28;20044;-58
2021/11/20 14:19:36;;;;;;;10.98;4.10;;;;;;;;;;5020647;28;20143;-58
2021/11/20 14:22:06;;;;;;;8.43;4.43;;;;;;;;;;5018050;28;20060;-58
2021/11/20 14:24:38;;;;;;;13.43;5.25;;;;;;;;;;5014004;28;20551;-58
2021/11/20 14:27:05;;;;;;;21.63;5.47;;;;;;;;;;5018539;28;20120;-58
2021/11/20 14:29:37;;;;;;;15.18;5.03;;;;;;;;;;5018617;28;20049;-58
2021/11/20 14:32:06;;;;;;;13.98;4.03;;;;;;;;;;5023055;28;20031;-58
2021/11/20 14:34:42;;;;;;;15.40;4.72;;;;;;;;;;5016069;28;20033;-58
2021/11/20 14:37:14;;;;;;;17.60;4.80;;;;;;;;;;5016588;28;20141;-58
2021/11/20 14:39:48;;;;;;;13.25;3.85;;;;;;;;;;5019012;28;20029;-58
2021/11/20 14:42:15;;;;;;;15.00;5.07;;;;;;;;;;5018960;28;20039;-58
2021/11/20 14:44:41;;;;;;;16.83;4.53;;;;;;;;;;5010407;28;20500;-58
2021/11/20 14:47:12;;;;;;;15.60;4.88;;;;;;;;;;5020768;28;20101;-58
2021/11/20 14:49:41;;;;;;;21.80;4.95;;;;;;;;;;5016492;28;20103;-58
2021/11/20 14:52:17;;;;;;;16.65;4.82;;;;;;;;;;5014331;28;20030;-58
2021/11/20 14:54:58;;;;;;;14.63;5.18;;;;;;;;;;5020517;28;20026;-58
2021/11/20 14:57:26;;;;;;;15.63;5.50;;;;;;;;;;5016112;28;20026;-58
2021/11/20 14:59:52;;;;;;;22.90;6.35;;;;;;;;;;5023810;28;20472;-59
2021/11/20 15:02:18;;;;;;;13.38;4.80;;;;;;;;;;5020859;28;20037;-58
2021/11/20 15:04:45;;;;;;;12.52;2.47;;;;;;;;;;5021372;28;20022;-58
2021/11/20 15:07:11;;;;;;;6.63;2.25;;;;;;;;;;5015949;28;20036;-58